Time;durP1;ratioP1;P1;durP2;ratioP2;P2;SDS_P1;SDS_P2;PMS_P1;PMS_P2;Temp;Humidity;BMP_temperature;BMP_pressure;BME280_temperature;BME280_humidity;BME280_pressure;Samples;Min_cycle;Max_cycle;Signal;HPM_P1;HPM_P2
2022/07/02 00:00:39;;;;;;;10.20;4.22;;;;;;;18.75;56.78;101314.88;5055765;28;20031;-49
2022/07/02 00:03:07;;;;;;;8.02;3.72;;;;;;;18.53;56.09;101326.44;5060760;28;20460;-50
2022/07/02 00:05:35;;;;;;;15.85;4.15;;;;;;;18.06;56.97;101315.91;5075517;28;20074;-49
2022/07/02 00:08:04;;;;;;;17.17;4.53;;;;;;;17.76;58.43;101320.75;5075434;28;20028;-49
2022/07/02 00:10:31;;;;;;;12.15;4.05;;;;;;;17.36;59.35;101319.69;5075537;28;20066;-51
2022/07/02 00:12:57;;;;;;;14.60;4.75;;;;;;;17.73;59.32;101322.06;5075359;28;20020;-49
2022/07/02 00:15:24;;;;;;;15.13;4.60;;;;;;;17.80;60.19;101322.75;5060786;28;20031;-49
2022/07/02 00:17:50;;;;;;;11.43;3.97;;;;;;;17.64;58.45;101324.28;5054905;28;20139;-52
2022/07/02 00:20:16;;;;;;;18.00;5.03;;;;;;;17.52;59.75;101312.69;5055304;28;20032;-49
2022/07/02 00:22:44;;;;;;;13.73;4.10;;;;;;;17.87;58.96;101317.16;5054962;28;20029;-49
2022/07/02 00:25:13;;;;;;;11.32;4.50;;;;;;;17.79;58.63;101312.16;5055006;28;20098;-54
2022/07/02 00:27:42;;;;;;;13.18;4.70;;;;;;;18.10;58.68;101318.94;5054924;28;20048;-52
2022/07/02 00:30:09;;;;;;;14.98;4.88;;;;;;;17.72;59.24;101308.75;5054897;28;20024;-52
2022/07/02 00:32:36;;;;;;;14.60;4.43;;;;;;;17.71;59.70;101304.38;5052064;28;20042;-48
2022/07/02 00:35:11;;;;;;;12.43;4.05;;;;;;;17.46;59.51;101300.13;5036557;28;20035;-51
2022/07/02 00:37:38;;;;;;;9.55;4.53;;;;;;;17.36;59.94;101303.44;5034311;28;20028;-55
2022/07/02 00:40:06;;;;;;;20.17;4.65;;;;;;;17.46;59.58;101300.13;5048602;28;20498;-52
2022/07/02 00:42:35;;;;;;;10.90;4.22;;;;;;;17.61;60.16;101286.91;5049406;28;20503;-53
2022/07/02 00:45:02;;;;;;;18.25;4.93;;;;;;;17.52;59.82;101291.03;5054500;28;20032;-54
2022/07/02 00:47:30;;;;;;;15.70;4.63;;;;;;;17.58;60.18;101286.53;5053930;28;20029;-52
2022/07/02 00:49:56;;;;;;;18.73;4.55;;;;;;;17.35;60.57;101285.56;5054640;28;20025;-50
2022/07/02 00:52:23;;;;;;;17.60;4.50;;;;;;;17.21;61.55;101292.28;5038588;28;20036;-52
2022/07/02 00:54:49;;;;;;;13.75;3.97;;;;;;;17.11;62.24;101294.81;5034465;28;20026;-54
2022/07/02 00:57:16;;;;;;;12.70;4.68;;;;;;;17.06;61.56;101289.28;5033880;28;20029;-55
2022/07/02 00:59:43;;;;;;;16.75;4.18;;;;;;;17.13;61.86;101287.28;5037201;28;20024;-56
2022/07/02 01:02:10;;;;;;;14.25;4.13;;;;;;;17.04;62.35;101284.09;5054249;28;20036;-52
2022/07/02 01:04:36;;;;;;;17.00;4.93;;;;;;;17.30;62.02;101277.34;5053784;28;20139;-50
2022/07/02 01:07:06;;;;;;;11.70;4.93;;;;;;;16.87;62.39;101283.19;5053766;28;20565;-53
2022/07/02 01:12:30;;;;;;;18.48;4.47;;;;;;;17.12;62.18;101280.22;5054095;28;20053;-50
2022/07/02 01:14:57;;;;;;;14.30;4.80;;;;;;;16.91;62.72;101278.97;5053924;28;20043;-51
2022/07/02 01:17:24;;;;;;;16.48;4.40;;;;;;;16.68;63.01;101268.16;5053728;28;20053;-53
2022/07/02 01:19:50;;;;;;;12.13;4.88;;;;;;;16.82;63.80;101261.44;5052486;28;20476;-52
2022/07/02 01:22:24;;;;;;;13.20;4.32;;;;;;;16.73;62.87;101265.59;5052462;28;20048;-52
2022/07/02 01:24:53;;;;;;;14.68;4.78;;;;;;;16.95;62.47;101263.09;5050741;28;20047;-51
2022/07/02 01:27:21;;;;;;;20.60;5.00;;;;;;;16.88;62.21;101268.63;5060080;28;20531;-51
2022/07/02 01:29:47;;;;;;;13.43;4.38;;;;;;;16.61;63.41;101260.97;5053798;28;20421;-52
2022/07/02 01:32:14;;;;;;;13.68;4.82;;;;;;;16.69;63.67;101256.28;5053362;28;20029;-53
2022/07/02 01:34:46;;;;;;;14.45;4.88;;;;;;;16.50;64.12;101269.91;5060024;28;20032;-52
2022/07/02 01:37:14;;;;;;;13.90;4.38;;;;;;;16.50;63.73;101261.00;5058142;28;20070;-48
2022/07/02 01:39:42;;;;;;;15.85;4.50;;;;;;;16.41;64.26;101263.19;5063754;28;20040;-51
2022/07/02 01:42:09;;;;;;;12.30;4.05;;;;;;;16.31;64.26;101263.78;5053613;28;20021;-52
2022/07/02 01:44:36;;;;;;;13.82;4.55;;;;;;;16.09;64.91;101258.09;5053419;28;20025;-52
2022/07/02 01:47:05;;;;;;;13.30;5.50;;;;;;;16.00;65.14;101272.19;5055848;28;20028;-48
2022/07/02 01:49:31;;;;;;;16.30;4.45;;;;;;;16.10;65.22;101259.78;5054436;28;20040;-51
2022/07/02 01:51:57;;;;;;;13.02;5.07;;;;;;;16.06;65.34;101265.88;5053536;28;20496;-52
2022/07/02 01:54:24;;;;;;;21.40;5.30;;;;;;;16.18;64.90;101257.78;5053126;28;20119;-52
2022/07/02 01:56:51;;;;;;;12.65;4.70;;;;;;;16.12;65.17;101251.44;5063034;28;20036;-50
2022/07/02 01:59:18;;;;;;;9.95;4.28;;;;;;;16.00;66.04;101256.00;5073189;28;20032;-51
2022/07/02 02:01:44;;;;;;;13.38;5.03;;;;;;;16.10;65.76;101259.78;5073009;28;20127;-52
2022/07/02 02:04:11;;;;;;;17.58;5.50;;;;;;;16.08;65.81;101251.06;5072825;28;20024;-51
2022/07/02 02:06:37;;;;;;;14.70;4.70;;;;;;;16.07;65.40;101256.72;5072832;28;20496;-51
2022/07/02 02:09:05;;;;;;;14.35;4.78;;;;;;;16.15;65.91;101259.06;5066960;28;20032;-52
2022/07/02 02:11:31;;;;;;;15.23;5.07;;;;;;;16.42;65.07;101253.22;5058331;28;20095;-48
2022/07/02 02:13:58;;;;;;;12.57;4.55;;;;;;;16.53;64.52;101250.50;5052432;28;20033;-50
2022/07/02 02:16:29;;;;;;;17.40;4.10;;;;;;;16.58;64.01;101247.94;5052455;28;20025;-50
2022/07/02 02:18:57;;;;;;;11.75;4.47;;;;;;;16.65;63.91;101247.81;5052065;28;20025;-51
2022/07/02 02:21:25;;;;;;;12.00;4.70;;;;;;;16.98;62.94;101263.41;5052703;28;20021;-52
2022/07/02 02:23:52;;;;;;;18.25;5.00;;;;;;;17.17;62.55;101238.94;5052244;28;20470;-51
2022/07/02 02:26:18;;;;;;;16.00;4.57;;;;;;;16.93;62.73;101241.69;5051003;28;20049;-53
2022/07/02 02:28:44;;;;;;;13.73;4.32;;;;;;;17.19;61.91;101250.34;5052089;28;20355;-53
2022/07/02 02:31:10;;;;;;;10.93;3.97;;;;;;;17.37;61.18;101250.97;5052294;28;20036;-53
2022/07/02 02:33:36;;;;;;;14.05;4.10;;;;;;;17.42;60.97;101248.34;5057910;23;20355;-52
2022/07/02 02:36:03;;;;;;;16.73;4.25;;;;;;;17.35;61.21;101253.09;5052158;28;20090;-52
2022/07/02 02:38:29;;;;;;;12.55;4.32;;;;;;;17.27;61.49;101239.97;5052093;28;20060;-53
2022/07/02 02:40:55;;;;;;;9.73;3.42;;;;;;;17.38;61.34;101249.94;5052388;28;20048;-52
2022/07/02 02:43:22;;;;;;;17.67;5.47;;;;;;;17.35;61.97;101252.28;5054789;28;20029;-52
2022/07/02 02:45:48;;;;;;;17.67;5.35;;;;;;;17.02;62.64;101258.38;5054671;28;20029;-51
2022/07/02 02:48:16;;;;;;;9.07;4.10;;;;;;;16.81;62.74;101251.69;5052094;28;20032;-52
2022/07/02 02:50:42;;;;;;;13.32;4.30;;;;;;;16.58;63.84;101249.81;5052033;28;20032;-53
2022/07/02 02:53:08;;;;;;;10.23;3.88;;;;;;;16.73;63.31;101255.59;5038828;28;20041;-52
2022/07/02 02:55:34;;;;;;;13.00;3.92;;;;;;;16.24;65.26;101262.25;5051494;28;20512;-53
2022/07/02 02:58:01;;;;;;;11.82;4.40;;;;;;;16.62;64.11;101254.50;5051677;28;20032;-50
2022/07/02 03:00:27;;;;;;;17.83;4.68;;;;;;;16.31;64.94;101255.66;5051652;28;20433;-51
2022/07/02 03:02:53;;;;;;;13.52;4.55;;;;;;;16.18;65.94;101263.19;5051852;28;20031;-53
2022/07/02 03:05:19;;;;;;;13.25;4.63;;;;;;;15.84;66.67;101252.91;5051612;28;20021;-53
2022/07/02 03:07:45;;;;;;;15.27;5.15;;;;;;;15.93;66.97;101256.06;5051763;28;20020;-53
2022/07/02 03:10:12;;;;;;;11.23;4.05;;;;;;;15.82;67.03;101262.28;5051955;28;20530;-51
2022/07/02 03:12:38;;;;;;;13.55;4.57;;;;;;;15.87;66.99;101262.41;5051919;28;20477;-55
2022/07/02 03:15:05;;;;;;;11.38;4.35;;;;;;;15.46;68.01;101255.09;5051616;28;20040;-50
2022/07/02 03:17:31;;;;;;;11.20;3.92;;;;;;;15.38;68.45;101252.69;5051627;28;20021;-52
2022/07/02 03:19:58;;;;;;;19.73;4.40;;;;;;;15.20;69.15;101253.53;5051819;28;20075;-54
2022/07/02 03:22:24;;;;;;;12.52;4.47;;;;;;;15.11;69.76;101257.63;5051289;28;20111;-53
2022/07/02 03:24:51;;;;;;;13.38;4.07;;;;;;;15.02;69.89;101273.25;5051862;28;20166;-54
2022/07/02 03:27:17;;;;;;;12.82;3.90;;;;;;;14.73;71.19;101262.16;5051101;28;20432;-51
2022/07/02 03:29:43;;;;;;;15.27;4.78;;;;;;;14.57;72.02;101261.91;5051499;28;20397;-51
2022/07/02 03:32:09;;;;;;;14.07;4.43;;;;;;;14.35;72.79;101264.97;5051548;28;20037;-52
2022/07/02 03:34:35;;;;;;;18.95;4.30;;;;;;;14.38;72.92;101263.69;5051706;28;20549;-53
2022/07/02 03:37:02;;;;;;;22.15;5.68;;;;;;;14.31;73.07;101266.47;5051040;28;20041;-53
2022/07/02 03:39:28;;;;;;;16.08;4.57;;;;;;;14.22;73.54;101271.31;5051362;28;20028;-53
2022/07/02 03:41:54;;;;;;;15.98;4.95;;;;;;;14.22;73.53;101267.78;5051754;28;20017;-52
2022/07/02 03:44:20;;;;;;;14.90;4.65;;;;;;;14.30;73.29;101275.59;5052974;28;20083;-53
2022/07/02 03:46:47;;;;;;;12.30;4.32;;;;;;;14.04;74.42;101273.09;5049045;28;20115;-50
2022/07/02 03:49:13;;;;;;;11.63;4.10;;;;;;;13.97;74.47;101278.53;5051639;28;20127;-54
2022/07/02 03:51:39;;;;;;;15.50;4.32;;;;;;;14.06;73.93;101274.53;5051685;28;20565;-53
2022/07/02 03:54:05;;;;;;;11.95;4.75;;;;;;;13.99;74.00;101265.66;5071584;28;20397;-52
2022/07/02 03:56:32;;;;;;;8.80;3.72;;;;;;;13.89;73.95;101276.13;5055230;28;20027;-50
2022/07/02 03:58:58;;;;;;;9.68;4.75;;;;;;;13.89;74.47;101276.94;5065365;28;20029;-53
2022/07/02 04:01:24;;;;;;;14.02;4.60;;;;;;;14.00;74.04;101267.34;5071529;28;20491;-54
2022/07/02 04:03:50;;;;;;;11.35;4.53;;;;;;;13.99;73.89;101266.53;5071390;28;20047;-51
2022/07/02 04:06:16;;;;;;;15.32;4.35;;;;;;;13.90;74.43;101267.81;5070867;28;20051;-54
2022/07/02 04:08:43;;;;;;;13.70;4.45;;;;;;;14.04;74.17;101265.00;5071402;28;20086;-56
2022/07/02 04:11:09;;;;;;;8.93;4.85;;;;;;;13.83;75.09;101275.13;5071289;28;20392;-52
2022/07/02 04:13:35;;;;;;;14.98;4.35;;;;;;;13.87;74.70;101283.56;5055010;28;20100;-53
2022/07/02 04:16:01;;;;;;;9.68;4.70;;;;;;;13.92;74.54;101271.09;5050944;28;20424;-55
2022/07/02 04:18:28;;;;;;;11.77;4.10;;;;;;;13.78;75.13;101272.25;5054955;28;20115;-56
2022/07/02 04:20:54;;;;;;;10.27;4.20;;;;;;;13.74;75.48;101281.78;5049262;28;20056;-55
2022/07/02 04:23:20;;;;;;;10.77;3.40;;;;;;;13.81;74.93;101284.44;5051402;28;20032;-53
2022/07/02 04:25:46;;;;;;;10.18;3.88;;;;;;;13.78;74.84;101285.69;5049407;28;20167;-55
2022/07/02 04:28:12;;;;;;;14.88;4.13;;;;;;;13.82;75.16;101297.66;5041122;28;20033;-54
2022/07/02 04:30:39;;;;;;;10.60;4.18;;;;;;;13.78;75.69;101287.56;5040924;28;20060;-54
2022/07/02 04:33:05;;;;;;;21.33;4.90;;;;;;;13.72;75.81;101302.72;5050963;28;20032;-55
2022/07/02 04:35:31;;;;;;;12.52;3.70;;;;;;;13.67;76.00;101300.66;5046052;28;20045;-53
2022/07/02 04:37:57;;;;;;;10.95;4.28;;;;;;;13.64;76.18;101302.94;5047559;28;20065;-54
2022/07/02 04:40:24;;;;;;;13.25;4.63;;;;;;;13.64;76.30;101311.84;5050003;28;20051;-53
2022/07/02 04:42:50;;;;;;;17.85;3.72;;;;;;;13.62;76.13;101307.72;5052929;28;20174;-54
2022/07/02 04:45:16;;;;;;;9.55;3.67;;;;;;;13.55;76.58;101309.59;5053991;28;20473;-52
2022/07/02 04:47:42;;;;;;;12.70;4.15;;;;;;;13.51;76.71;101301.16;5052754;28;20091;-53
2022/07/02 04:50:09;;;;;;;9.23;3.85;;;;;;;13.38;76.97;101311.94;5054302;28;20074;-54
2022/07/02 04:52:35;;;;;;;9.82;3.72;;;;;;;13.35;77.50;101315.06;5050498;28;20029;-53
2022/07/02 04:55:01;;;;;;;8.75;3.88;;;;;;;13.43;76.98;101317.50;5054232;28;20029;-50
2022/07/02 04:57:27;;;;;;;7.22;3.58;;;;;;;13.29;77.24;101318.63;5052445;28;20033;-52
2022/07/02 04:59:53;;;;;;;9.70;3.63;;;;;;;13.40;76.60;101312.56;5054457;28;20025;-55
2022/07/02 05:02:20;;;;;;;9.57;2.97;;;;;;;13.33;77.18;101326.06;5053621;28;20045;-55
2022/07/02 05:04:46;;;;;;;8.77;3.35;;;;;;;13.42;76.46;101322.06;5053909;28;20455;-54
2022/07/02 05:07:12;;;;;;;8.80;3.05;;;;;;;13.40;76.85;101326.03;5051935;28;20037;-56
2022/07/02 05:09:38;;;;;;;9.68;3.35;;;;;;;13.34;77.36;101322.31;5052324;28;20099;-55
2022/07/02 05:12:05;;;;;;;11.38;3.92;;;;;;;13.38;77.21;101311.94;5054106;28;20070;-52
2022/07/02 05:14:31;;;;;;;12.85;4.00;;;;;;;13.35;77.16;101321.28;5052152;28;20036;-54
2022/07/02 05:16:57;;;;;;;11.00;3.50;;;;;;;13.41;77.04;101315.03;5053600;28;20025;-55
2022/07/02 05:19:23;;;;;;;9.10;3.35;;;;;;;13.48;76.58;101318.53;5052033;28;20056;-54
2022/07/02 05:21:50;;;;;;;10.90;3.65;;;;;;;13.44;76.60;101317.31;5052065;28;20040;-52
2022/07/02 05:24:16;;;;;;;12.82;3.75;;;;;;;13.57;76.10;101319.13;5053936;28;20021;-53
2022/07/02 05:26:42;;;;;;;10.15;3.45;;;;;;;13.50;75.83;101325.56;5051659;28;20056;-53
2022/07/02 05:29:08;;;;;;;8.32;3.50;;;;;;;13.51;75.91;101324.53;5036032;28;20021;-55
2022/07/02 05:31:34;;;;;;;11.18;3.47;;;;;;;13.58;76.10;101323.44;5040774;28;20119;-51
2022/07/02 05:34:01;;;;;;;12.98;3.63;;;;;;;13.59;76.04;101318.91;5064091;28;20037;-50
2022/07/02 05:36:27;;;;;;;9.98;4.30;;;;;;;13.37;76.76;101319.19;5058296;28;20024;-51
2022/07/02 05:38:53;;;;;;;8.75;3.35;;;;;;;13.35;77.27;101317.75;5053432;28;20620;-50
2022/07/02 05:41:19;;;;;;;13.05;4.22;;;;;;;13.43;77.26;101321.03;5053749;28;20083;-50
2022/07/02 05:43:46;;;;;;;9.95;3.63;;;;;;;13.35;76.78;101312.38;5053381;28;20115;-53
2022/07/02 05:46:12;;;;;;;6.65;3.25;;;;;;;13.37;76.66;101318.38;5053438;28;20071;-55
2022/07/02 05:48:38;;;;;;;9.95;3.17;;;;;;;13.29;76.74;101310.56;5053088;28;20017;-52
2022/07/02 05:51:04;;;;;;;9.70;3.45;;;;;;;13.32;77.03;101313.63;5053416;28;20028;-53
2022/07/02 05:53:31;;;;;;;11.90;3.63;;;;;;;13.29;77.19;101314.06;5052212;28;20031;-54
2022/07/02 05:55:57;;;;;;;8.45;3.55;;;;;;;13.31;77.14;101311.97;5052931;28;20028;-54
2022/07/02 05:58:23;;;;;;;10.95;3.15;;;;;;;13.37;77.16;101311.13;5053146;28;20021;-54
2022/07/02 06:00:49;;;;;;;8.50;3.25;;;;;;;13.35;76.92;101312.38;5053292;28;20087;-52
2022/07/02 06:03:16;;;;;;;8.10;2.83;;;;;;;13.30;77.18;101314.88;5052842;28;20021;-55
2022/07/02 06:08:27;;;;;;;6.07;2.65;;;;;;;13.22;77.63;101307.88;5053378;28;20044;-53
2022/07/02 06:10:53;;;;;;;10.25;3.88;;;;;;;13.13;77.84;101309.94;5055058;28;20060;-54
2022/07/02 06:13:20;;;;;;;7.22;3.15;;;;;;;13.20;77.93;101304.53;5052939;28;20024;-53
2022/07/02 06:15:46;;;;;;;8.32;3.42;;;;;;;13.19;77.89;101308.28;5050255;28;20033;-52
2022/07/02 06:18:12;;;;;;;8.93;3.83;;;;;;;13.25;77.75;101299.38;5050542;28;20098;-52
2022/07/02 06:20:39;;;;;;;10.75;3.38;;;;;;;13.25;77.85;101301.25;5050498;28;20043;-54
2022/07/02 06:23:05;;;;;;;10.13;3.80;;;;;;;13.37;77.52;101305.75;5050962;28;20024;-52
2022/07/02 06:25:33;;;;;;;7.63;2.70;;;;;;;13.35;77.07;101302.44;5049244;28;20100;-53
2022/07/02 06:27:59;;;;;;;9.38;2.80;;;;;;;13.30;77.03;101306.81;5044008;28;20032;-54
2022/07/02 06:30:26;;;;;;;8.63;3.20;;;;;;;13.13;78.37;101298.38;5038065;23;20050;-54
2022/07/02 06:32:52;;;;;;;10.90;3.33;;;;;;;13.16;78.63;101289.88;5032416;28;20066;-51
2022/07/02 06:35:18;;;;;;;7.10;3.08;;;;;;;12.98;79.24;101300.47;5031117;28;20064;-54
2022/07/02 06:37:44;;;;;;;14.40;3.75;;;;;;;13.03;78.98;101298.78;5032528;28;20025;-51
2022/07/02 06:40:11;;;;;;;6.63;3.42;;;;;;;13.07;79.28;101304.59;5031245;28;20022;-51
2022/07/02 06:42:37;;;;;;;7.65;3.08;;;;;;;13.04;79.33;101307.69;5031277;28;20112;-53
2022/07/02 06:45:04;;;;;;;10.60;3.22;;;;;;;13.03;79.49;101298.78;5030694;28;20029;-55
2022/07/02 06:47:32;;;;;;;9.85;3.50;;;;;;;13.11;79.14;101303.13;5031374;28;20034;-54
2022/07/02 06:50:00;;;;;;;9.02;2.90;;;;;;;13.19;77.72;101301.03;5031410;28;20022;-55
2022/07/02 06:52:27;;;;;;;11.27;3.22;;;;;;;13.09;77.90;101303.31;5032488;28;20100;-55
2022/07/02 06:54:53;;;;;;;9.57;3.28;;;;;;;13.13;77.96;101315.31;5029474;28;20029;-54
2022/07/02 06:57:19;;;;;;;9.70;3.40;;;;;;;13.13;77.87;101319.88;5030801;28;20083;-56
2022/07/02 06:59:46;;;;;;;8.43;2.85;;;;;;;13.09;79.05;101302.50;5030929;28;20037;-54
2022/07/02 07:02:12;;;;;;;11.15;2.72;;;;;;;12.98;78.88;101311.22;5030960;28;20037;-54
2022/07/02 07:04:40;;;;;;;10.25;3.45;;;;;;;12.93;79.63;101304.59;5030401;28;20129;-55
2022/07/02 07:07:08;;;;;;;8.98;2.70;;;;;;;13.01;79.58;101310.81;5032074;28;20449;-54
2022/07/02 07:09:34;;;;;;;11.13;3.58;;;;;;;12.80;80.22;101298.44;5030732;28;20034;-52
2022/07/02 07:12:04;;;;;;;7.95;3.45;;;;;;;12.84;80.13;101300.50;5031262;28;20029;-54
2022/07/02 07:14:31;;;;;;;9.27;2.85;;;;;;;12.79;79.60;101304.84;5032034;28;20431;-55
2022/07/02 07:16:58;;;;;;;7.97;3.30;;;;;;;12.92;79.48;101305.66;5029772;28;20037;-52
2022/07/02 07:19:24;;;;;;;12.38;3.92;;;;;;;12.88;79.43;101308.94;5030623;28;20018;-53
2022/07/02 07:21:51;;;;;;;10.55;3.10;;;;;;;12.84;79.61;101316.63;5030626;28;20041;-55
2022/07/02 07:24:18;;;;;;;9.80;3.22;;;;;;;12.92;79.76;101305.66;5029924;28;20112;-55
2022/07/02 07:26:44;;;;;;;8.52;2.60;;;;;;;12.91;79.38;101306.69;5027631;28;20067;-55
2022/07/02 07:29:10;;;;;;;8.48;3.05;;;;;;;12.87;79.33;101304.63;5014777;28;20515;-53
2022/07/02 07:31:37;;;;;;;10.20;3.22;;;;;;;12.83;80.14;101298.03;5031985;28;20064;-55
2022/07/02 07:34:04;;;;;;;12.15;3.45;;;;;;;12.82;80.61;101307.09;5029757;28;20025;-52
2022/07/02 07:36:30;;;;;;;6.53;2.60;;;;;;;12.85;80.80;101306.69;5030472;28;20036;-54
2022/07/02 07:39:01;;;;;;;9.80;2.65;;;;;;;12.79;81.16;101305.69;5031542;28;20366;-55
2022/07/02 07:41:28;;;;;;;4.60;2.30;;;;;;;12.69;80.53;101297.22;5030792;28;20037;-54
2022/07/02 07:43:54;;;;;;;8.32;3.08;;;;;;;12.77;80.35;101307.75;5031327;28;20029;-55
2022/07/02 07:46:21;;;;;;;8.20;3.20;;;;;;;12.77;80.35;101309.59;5030303;28;20129;-54
2022/07/02 07:48:48;;;;;;;7.40;2.40;;;;;;;12.77;79.43;101305.06;5029119;28;20056;-50
2022/07/02 07:51:15;;;;;;;9.35;2.50;;;;;;;12.80;79.66;101315.38;5029983;28;20057;-50
2022/07/02 07:53:43;;;;;;;6.45;2.72;;;;;;;12.84;79.65;101307.75;5030515;28;20398;-53
2022/07/02 07:56:09;;;;;;;9.35;3.00;;;;;;;12.72;79.72;101310.25;5028353;28;20087;-49
2022/07/02 07:58:36;;;;;;;10.40;2.60;;;;;;;12.75;80.14;101306.31;5031145;28;20113;-55
2022/07/02 08:01:02;;;;;;;6.78;2.40;;;;;;;12.85;79.79;101301.31;5030299;28;20037;-54
2022/07/02 08:03:29;;;;;;;6.68;2.50;;;;;;;12.72;80.01;101302.19;5031592;28;20044;-54
2022/07/02 08:05:56;;;;;;;7.80;2.42;;;;;;;12.78;79.41;101306.72;5030942;28;20029;-55
2022/07/02 08:08:23;;;;;;;4.28;2.13;;;;;;;12.85;79.35;101306.69;5031503;28;20053;-54
2022/07/02 08:10:49;;;;;;;5.25;1.90;;;;;;;12.94;78.78;101300.91;5030194;28;20026;-53
2022/07/02 08:13:16;;;;;;;7.35;2.58;;;;;;;12.83;78.65;101300.72;5030107;28;20029;-53
2022/07/02 08:15:43;;;;;;;6.78;2.25;;;;;;;12.86;78.58;101311.03;5030439;28;20025;-54
2022/07/02 08:18:10;;;;;;;4.88;2.22;;;;;;;12.80;78.99;101307.31;5035508;28;20037;-53
2022/07/02 08:20:36;;;;;;;5.50;2.38;;;;;;;12.80;78.61;101299.25;5034236;28;20525;-52
2022/07/02 08:23:02;;;;;;;6.65;2.17;;;;;;;12.92;78.23;101308.31;5035071;28;20029;-55
2022/07/02 08:25:30;;;;;;;4.10;2.10;;;;;;;12.86;78.50;101303.81;5033523;28;20563;-52
2022/07/02 08:27:56;;;;;;;6.63;2.20;;;;;;;12.84;78.59;101307.75;5026769;28;20513;-52
2022/07/02 08:30:23;;;;;;;4.85;1.88;;;;;;;12.83;78.41;101304.25;5023315;28;20030;-53
2022/07/02 08:32:50;;;;;;;4.43;2.35;;;;;;;12.81;78.32;101305.47;5033549;28;20037;-54
2022/07/02 08:35:17;;;;;;;5.07;1.88;;;;;;;12.86;78.10;101300.28;5033178;28;20026;-53
2022/07/02 08:37:44;;;;;;;3.80;1.52;;;;;;;12.87;77.77;101304.63;5035075;28;20029;-53
2022/07/02 08:40:10;;;;;;;5.15;2.08;;;;;;;12.83;78.25;101300.72;5034123;28;20022;-53
2022/07/02 08:42:41;;;;;;;2.97;1.33;;;;;;;12.85;78.15;101295.97;5034333;28;20038;-55
2022/07/02 08:45:09;;;;;;;3.78;1.67;;;;;;;12.81;78.55;101295.53;5033244;28;20119;-54
2022/07/02 08:47:36;;;;;;;4.45;1.80;;;;;;;12.85;78.32;101301.31;5033981;28;20469;-54
2022/07/02 08:50:03;;;;;;;5.25;2.00;;;;;;;12.97;77.65;101307.72;5038781;28;20033;-53
2022/07/02 08:52:30;;;;;;;4.95;2.08;;;;;;;12.95;77.38;101305.22;5044965;28;20045;-54
2022/07/02 08:54:56;;;;;;;6.75;2.03;;;;;;;12.89;76.78;101307.94;5032967;28;20095;-53
2022/07/02 08:57:24;;;;;;;6.95;2.30;;;;;;;13.03;76.67;101303.34;5034349;28;20030;-55
2022/07/02 08:59:50;;;;;;;5.88;1.90;;;;;;;13.06;76.59;101294.88;5033362;28;20103;-54
2022/07/02 09:02:19;;;;;;;3.58;1.70;;;;;;;13.05;76.61;101302.13;5034399;28;20026;-55
2022/07/02 09:04:47;;;;;;;4.75;1.48;;;;;;;13.00;76.50;101304.63;5032597;28;20116;-54
2022/07/02 09:07:16;;;;;;;5.72;1.75;;;;;;;13.13;75.71;101303.75;5014581;28;20022;-54
2022/07/02 09:09:42;;;;;;;4.18;1.60;;;;;;;13.06;75.61;101298.38;5012692;28;20033;-55
2022/07/02 09:12:18;;;;;;;4.07;1.65;;;;;;;13.11;75.17;101300.44;5032881;28;20026;-53
2022/07/02 09:14:44;;;;;;;4.43;1.70;;;;;;;13.06;75.74;101286.81;5034070;28;20025;-55
2022/07/02 09:17:12;;;;;;;5.03;1.70;;;;;;;13.08;75.87;101290.09;5034052;28;20039;-53
2022/07/02 09:19:39;;;;;;;3.42;1.40;;;;;;;13.10;75.88;101288.03;5034025;28;20025;-54
2022/07/02 09:22:07;;;;;;;3.13;1.40;;;;;;;13.18;75.45;101288.63;5032428;28;20044;-55
2022/07/02 09:24:34;;;;;;;2.83;1.25;;;;;;;13.16;74.94;101287.22;5031750;28;20041;-56
2022/07/02 09:27:06;;;;;;;3.20;1.70;;;;;;;13.12;75.09;101288.66;5032283;28;20030;-55
2022/07/02 09:29:49;;;;;;;2.70;1.70;;;;;;;13.25;74.71;101295.88;5017228;28;20115;-53
2022/07/02 09:32:17;;;;;;;4.03;1.45;;;;;;;13.20;75.08;101296.47;5033978;28;20105;-56
2022/07/02 09:34:45;;;;;;;3.47;1.25;;;;;;;13.07;75.37;101300.03;5032837;28;20022;-54
2022/07/02 09:37:16;;;;;;;2.78;1.60;;;;;;;13.13;75.24;101293.81;5032862;28;20490;-53
2022/07/02 09:39:43;;;;;;;7.60;2.10;;;;;;;13.20;75.11;101293.78;5013792;28;20080;-52
2022/07/02 09:42:23;;;;;;;6.47;1.73;;;;;;;13.14;75.21;101292.78;5013558;28;20101;-54
2022/07/02 09:44:49;;;;;;;3.83;1.75;;;;;;;13.09;74.97;101281.00;5032403;28;20033;-56
2022/07/02 09:47:15;;;;;;;3.20;1.63;;;;;;;13.07;75.78;101288.47;5033279;28;20182;-54
2022/07/02 09:49:51;;;;;;;2.55;1.25;;;;;;;13.04;75.95;101283.50;5033690;28;20022;-55
2022/07/02 09:52:17;;;;;;;;;;;;;;;13.00;76.10;101288.50;5030541;28;20022;-52
2022/07/02 09:54:45;;;;;;;3.35;1.58;;;;;;;12.94;75.78;101290.16;5032039;28;19913;-51
2022/07/02 09:57:13;;;;;;;3.60;1.30;;;;;;;12.97;75.63;101283.53;5031625;28;20026;-55
2022/07/02 09:59:40;;;;;;;3.90;1.73;;;;;;;12.94;75.69;101284.78;5033117;28;20378;-54
2022/07/02 10:02:23;;;;;;;5.53;1.65;;;;;;;12.95;75.79;101289.13;5033085;28;20029;-55
2022/07/02 10:04:55;;;;;;;3.88;1.45;;;;;;;12.98;75.73;101292.41;5031187;28;20478;-54
2022/07/02 10:07:23;;;;;;;3.65;1.20;;;;;;;12.88;75.94;101285.63;5022725;28;20087;-53
2022/07/02 10:09:51;;;;;;;4.13;1.38;;;;;;;12.95;76.06;101289.13;5031899;28;20048;-53
2022/07/02 10:12:18;;;;;;;4.82;1.50;;;;;;;13.09;75.39;101286.38;5030375;28;20465;-55
2022/07/02 10:14:46;;;;;;;3.85;1.20;;;;;;;12.97;75.65;101290.75;5032822;28;20382;-49
2022/07/02 10:17:15;;;;;;;5.65;1.58;;;;;;;12.98;75.55;101292.41;5032202;28;20033;-54
2022/07/02 10:19:42;;;;;;;3.55;1.33;;;;;;;13.07;75.46;101288.47;5032426;28;20044;-54
2022/07/02 10:22:09;;;;;;;4.25;1.73;;;;;;;13.07;75.83;101283.91;5030880;28;20037;-55
2022/07/02 10:24:36;;;;;;;5.38;1.60;;;;;;;13.02;76.69;101290.97;5032262;28;20029;-54
2022/07/02 10:27:04;;;;;;;2.97;1.30;;;;;;;12.95;76.30;101293.66;5030885;28;20038;-54
2022/07/02 10:29:30;;;;;;;4.13;1.55;;;;;;;12.87;76.79;101292.00;5012996;28;20135;-55
2022/07/02 10:32:14;;;;;;;4.32;1.73;;;;;;;12.94;76.68;101292.03;5024977;28;20540;-50
2022/07/02 10:34:59;;;;;;;3.83;1.33;;;;;;;12.85;76.96;101287.91;5031978;28;20037;-53
2022/07/02 10:37:26;;;;;;;4.88;1.73;;;;;;;12.73;77.36;101278.84;5030516;28;20082;-53
2022/07/02 10:40:00;;;;;;;3.03;1.45;;;;;;;12.83;77.17;101284.59;5030850;28;20117;-53
2022/07/02 10:42:41;;;;;;;2.90;1.20;;;;;;;12.92;76.61;101286.00;5032627;28;20076;-54
2022/07/02 10:45:14;;;;;;;3.88;1.67;;;;;;;12.90;76.51;101286.22;5030774;28;20069;-54
2022/07/02 10:48:02;;;;;;;3.03;1.30;;;;;;;12.87;75.99;101299.25;5032978;28;20049;-54
2022/07/02 10:50:35;;;;;;;4.72;1.40;;;;;;;12.90;76.13;101286.22;5031209;28;20033;-53
2022/07/02 10:53:14;;;;;;;4.43;1.52;;;;;;;13.11;75.26;101287.00;5032084;28;20079;-54
2022/07/02 10:55:43;;;;;;;4.95;1.42;;;;;;;13.09;75.34;101276.44;5030150;28;20482;-53
2022/07/02 10:58:21;;;;;;;4.97;1.63;;;;;;;13.04;75.40;101276.25;5031042;28;20513;-53
2022/07/02 11:00:48;;;;;;;3.13;1.23;;;;;;;13.05;75.71;101279.81;5032376;28;20537;-53
2022/07/02 11:03:17;;;;;;;2.47;1.05;;;;;;;13.00;75.39;101271.53;5030987;28;20437;-56
2022/07/02 11:06:19;;;;;;;3.38;1.02;;;;;;;13.08;75.41;101273.97;5031938;28;20036;-53
2022/07/02 11:08:48;;;;;;;2.88;1.40;;;;;;;12.99;75.44;101281.44;5030633;28;20104;-53
2022/07/02 11:11:21;;;;;;;3.20;1.33;;;;;;;12.78;77.63;101273.66;5031918;28;20079;-55
2022/07/02 11:13:49;;;;;;;5.32;1.40;;;;;;;12.77;77.96;101272.00;5029922;28;20044;-55
2022/07/02 11:16:22;;;;;;;3.15;1.35;;;;;;;12.71;78.32;101270.97;5031440;28;20025;-52
2022/07/02 11:18:49;;;;;;;3.88;1.60;;;;;;;12.72;78.10;101272.63;5031754;28;20045;-52
2022/07/02 11:21:16;;;;;;;3.00;1.23;;;;;;;12.80;77.60;101267.03;5029105;28;20063;-52
2022/07/02 11:23:43;;;;;;;4.40;1.55;;;;;;;12.80;77.89;101272.41;5031848;28;20026;-54
2022/07/02 11:26:09;;;;;;;3.83;1.48;;;;;;;12.81;78.04;101266.00;5030638;28;20033;-54
2022/07/02 11:28:36;;;;;;;4.95;1.40;;;;;;;12.79;78.01;101265.38;5018489;28;20081;-53